createdAt,value
2022-07-29T00:02:47.574Z,100116.38
2022-07-29T00:06:49.488Z,100117.56
2022-07-29T00:10:51.283Z,100116.19
2022-07-29T00:14:56.554Z,100121.16
2022-07-29T00:19:01.886Z,100125.63
2022-07-29T00:23:04.144Z,100106.94
2022-07-29T00:27:06.003Z,100103.34
2022-07-29T00:31:09.065Z,100102.72
2022-07-29T00:35:29.703Z,100090.03
2022-07-29T00:39:31.718Z,100095.34
2022-07-29T00:43:33.685Z,100089.53
2022-07-29T00:47:35.486Z,100093.41
2022-07-29T00:51:37.878Z,100090.69
2022-07-29T00:55:40.040Z,100089.75
2022-07-29T00:59:41.931Z,100081.16
2022-07-29T01:03:43.945Z,100073.31
2022-07-29T01:07:45.720Z,100065.53
2022-07-29T01:11:48.643Z,100063.47
2022-07-29T01:16:00.316Z,100064.47
2022-07-29T01:20:41.228Z,100064.22
2022-07-29T01:25:07.632Z,100062.50
2022-07-29T01:29:21.909Z,100051.13
2022-07-29T01:33:42.574Z,100052.22
2022-07-29T01:38:02.533Z,100056.66
2022-07-29T01:42:27.424Z,100048.03
2022-07-29T01:46:33.382Z,100046.09
2022-07-29T01:50:38.980Z,100047.75
2022-07-29T01:54:46.737Z,100049.66
2022-07-29T01:58:48.766Z,100050.94
2022-07-29T02:02:50.528Z,100051.94
2022-07-29T02:06:55.013Z,100050.94
2022-07-29T02:10:56.869Z,100054.03
2022-07-29T02:14:58.750Z,100038.06
2022-07-29T02:19:02.570Z,100040.72
2022-07-29T02:23:04.377Z,100040.09
2022-07-29T02:27:06.252Z,100033.81
2022-07-29T02:31:08.139Z,100032.78
2022-07-29T02:35:10.336Z,100031.41
2022-07-29T02:39:13.371Z,100029.81
2022-07-29T02:43:15.396Z,100032.97
2022-07-29T02:47:41.358Z,100032.19
2022-07-29T02:51:54.130Z,100037.28
2022-07-29T02:56:07.681Z,100029.25
2022-07-29T03:00:10.535Z,100037.38
2022-07-29T03:08:52.956Z,100037.75
2022-07-29T03:13:09.712Z,100033.75
2022-07-29T03:17:11.494Z,100032.84
2022-07-29T03:25:42.492Z,100027.63
2022-07-29T03:29:50.013Z,100031.47
2022-07-29T03:33:52.495Z,100022.19
2022-07-29T03:37:54.255Z,100022.44
2022-07-29T03:41:57.532Z,100033.16
2022-07-29T03:45:59.380Z,100019.84
2022-07-29T03:50:06.168Z,100025.81
2022-07-29T04:19:03.240Z,100034.75
2022-07-29T04:23:05.369Z,100028.25
2022-07-29T04:27:07.400Z,100030.50
2022-07-29T04:31:09.838Z,100011.75
2022-07-29T04:35:11.901Z,100025.91
2022-07-29T04:39:16.114Z,100016.09
2022-07-29T04:43:22.740Z,100019.69
2022-07-29T04:47:25.393Z,100034.25
2022-07-29T04:51:27.137Z,100035.91
2022-07-29T04:55:28.861Z,100022.75
2022-07-29T04:59:30.619Z,100021.59
2022-07-29T05:03:34.740Z,100017.16
2022-07-29T05:07:36.538Z,100025.16
2022-07-29T05:11:38.286Z,100021.22
2022-07-29T05:15:40.116Z,100012.53
2022-07-29T05:19:41.917Z,99997.72
2022-07-29T05:23:43.821Z,100011.88
2022-07-29T05:27:45.727Z,99996.34
2022-07-29T05:31:47.519Z,100006.59
2022-07-29T05:35:49.318Z,100006.72
2022-07-29T05:39:56.552Z,100006.38
2022-07-29T05:43:59.572Z,100008.22
2022-07-29T05:48:01.340Z,100005.25
2022-07-29T05:52:03.337Z,100002.28
2022-07-29T05:56:08.695Z,100013.56
2022-07-29T06:00:11.358Z,100009.09
2022-07-29T06:04:13.498Z,100010.44
2022-07-29T06:08:15.689Z,100011.28
2022-07-29T06:12:17.406Z,100017.25
2022-07-29T06:16:30.123Z,100013.09
2022-07-29T06:20:32.831Z,100006.66
2022-07-29T06:24:34.838Z,100018.16
2022-07-29T06:28:36.552Z,100010.97
2022-07-29T06:32:42.935Z,100018.59
2022-07-29T06:36:45.060Z,100014.69
2022-07-29T06:41:07.065Z,100019.09
2022-07-29T06:45:09.552Z,100020.44
2022-07-29T06:49:17.476Z,100023.41
2022-07-29T06:53:19.784Z,100039.66
2022-07-29T06:57:24.409Z,100023.19
2022-07-29T07:01:26.392Z,100030.66
2022-07-29T07:05:29.719Z,100031.66
2022-07-29T07:09:40.489Z,100031.19
2022-07-29T07:13:42.707Z,100035.38
2022-07-29T07:17:44.549Z,100027.75
2022-07-29T07:21:46.296Z,100032.88
2022-07-29T07:25:48.582Z,100025.19
2022-07-29T07:29:50.340Z,100035.88
2022-07-29T07:33:53.125Z,100026.34
2022-07-29T07:37:56.628Z,100016.78
2022-07-29T07:41:58.438Z,100015.66
2022-07-29T07:46:00.321Z,100027.41
2022-07-29T07:50:02.205Z,100013.03
2022-07-29T07:54:03.993Z,100007.91
2022-07-29T07:58:06.609Z,100015.13
2022-07-29T08:02:09.528Z,100010.47
2022-07-29T08:06:11.354Z,99998.56
2022-07-29T08:10:15.399Z,100005.25
2022-07-29T08:14:18.181Z,99991.44
2022-07-29T08:18:20.320Z,99981.19
2022-07-29T08:22:22.230Z,99975.38
2022-07-29T08:26:24.565Z,99984.06
2022-07-29T08:30:26.515Z,99983.16
2022-07-29T08:34:29.495Z,99977.59
2022-07-29T08:38:31.350Z,99975.88
2022-07-29T08:42:33.177Z,99967.91
2022-07-29T08:46:34.975Z,99971.88
2022-07-29T08:50:37.047Z,99969.88
2022-07-29T08:54:40.507Z,99972.19
2022-07-29T08:58:42.414Z,99975.66
2022-07-29T09:02:49.237Z,99972.72
2022-07-29T09:06:52.503Z,99956.03
2022-07-29T09:10:54.514Z,99959.25
2022-07-29T09:14:56.286Z,99946.94
2022-07-29T09:18:58.157Z,99942.69
2022-07-29T09:23:09.220Z,99932.53
2022-07-29T09:27:19.991Z,99914.47
2022-07-29T09:31:36.648Z,99918.84
2022-07-29T09:35:39.715Z,99927.41
2022-07-29T09:39:47.701Z,99912.13
2022-07-29T09:43:59.678Z,99928.03
2022-07-29T09:48:22.886Z,99922.06
2022-07-29T09:52:26.011Z,99930.16
2022-07-29T09:56:43.629Z,99922.50
2022-07-29T10:00:46.792Z,99921.59
2022-07-29T10:04:51.512Z,99911.22
2022-07-29T10:08:53.523Z,99929.53
2022-07-29T10:13:06.944Z,99904.06
2022-07-29T10:17:12.214Z,99902.03
2022-07-29T10:21:22.606Z,99909.53
2022-07-29T10:25:37.945Z,99902.50
2022-07-29T10:29:39.808Z,99896.47
2022-07-29T10:34:15.988Z,99895.06
2022-07-29T10:38:46.035Z,99906.41
2022-07-29T10:42:49.990Z,99891.22
2022-07-29T10:46:54.448Z,99890.78
2022-07-29T10:51:05.038Z,99889.75
2022-07-29T10:55:09.091Z,99886.16
2022-07-29T10:59:24.900Z,99882.75
2022-07-29T11:03:49.300Z,99875.97
2022-07-29T11:12:43.965Z,99873.56
2022-07-29T11:17:11.202Z,99879.53
2022-07-29T11:26:27.466Z,99879.78
2022-07-29T11:30:55.042Z,99873.84
2022-07-29T11:35:17.061Z,99870.66
2022-07-29T11:39:36.882Z,99857.44
2022-07-29T11:43:59.249Z,99863.91
2022-07-29T11:48:32.208Z,99853.44
2022-07-29T11:52:49.591Z,99864.19
2022-07-29T11:56:52.502Z,99875.75
2022-07-29T12:05:22.288Z,99849.31
2022-07-29T12:07:02.431Z,99861.69
2022-07-29T12:09:40.303Z,99866.88
2022-07-29T12:13:43.542Z,99851.53
2022-07-29T12:17:47.540Z,99854.22
2022-07-29T12:21:59.639Z,99845.31
2022-07-29T12:26:07.195Z,99845.03
2022-07-29T12:30:11.988Z,99834.50
2022-07-29T12:34:19.324Z,99830.81
2022-07-29T12:38:21.439Z,99846.66
2022-07-29T12:42:23.355Z,99840.16
2022-07-29T12:46:25.309Z,99829.66
2022-07-29T12:50:27.144Z,99842.28
2022-07-29T12:54:28.924Z,99826.97
2022-07-29T12:58:35.301Z,99823.00
2022-07-29T13:02:37.922Z,99812.91
2022-07-29T13:06:51.050Z,99823.00
2022-07-29T13:10:53.044Z,99807.72
2022-07-29T13:14:54.839Z,99817.00
2022-07-29T13:19:15.538Z,99818.56
2022-07-29T13:23:17.332Z,99803.47
2022-07-29T13:27:20.381Z,99803.97
2022-07-29T13:31:23.260Z,99816.19
2022-07-29T13:35:25.103Z,99808.69
2022-07-29T13:39:27.013Z,99808.69
2022-07-29T13:43:28.796Z,99801.16
2022-07-29T13:47:32.206Z,99794.69
2022-07-29T13:51:34.897Z,99794.13
2022-07-29T13:55:36.685Z,99805.00
2022-07-29T13:59:39.317Z,99787.75
2022-07-29T14:03:45.802Z,99800.59
2022-07-29T14:07:47.703Z,99782.38
2022-07-29T14:11:51.192Z,99797.34
2022-07-29T14:15:53.801Z,99793.09
2022-07-29T14:19:55.535Z,99782.28
2022-07-29T14:23:57.581Z,99775.44
2022-07-29T14:28:00.065Z,99775.75
2022-07-29T14:32:02.348Z,99777.13
2022-07-29T14:36:04.682Z,99779.28
2022-07-29T14:40:07.276Z,99780.34
2022-07-29T14:44:09.033Z,99776.69
2022-07-29T14:48:12.667Z,99784.50
2022-07-29T14:52:14.465Z,99763.78
2022-07-29T14:56:35.939Z,99767.50
2022-07-29T15:00:38.721Z,99783.69
2022-07-29T15:04:40.508Z,99784.72
2022-07-29T15:08:42.269Z,99777.41
2022-07-29T15:12:44.059Z,99781.25
2022-07-29T15:16:46.707Z,99777.22
2022-07-29T15:20:50.108Z,99777.16
2022-07-29T15:24:51.990Z,99767.00
2022-07-29T15:28:53.830Z,99779.91
2022-07-29T15:32:57.206Z,99762.09
2022-07-29T15:36:59.491Z,99763.47
2022-07-29T15:41:01.500Z,99745.72
2022-07-29T15:45:04.071Z,99745.88
2022-07-29T15:49:08.065Z,99747.59
2022-07-29T15:53:09.911Z,99752.47
2022-07-29T15:57:11.951Z,99725.00
2022-07-29T16:01:13.766Z,99726.38
2022-07-29T16:05:15.612Z,99723.13
2022-07-29T16:09:19.020Z,99733.09
2022-07-29T16:13:20.986Z,99733.13
2022-07-29T16:17:22.920Z,99741.19
2022-07-29T16:21:25.093Z,99736.22
2022-07-29T16:25:57.597Z,99729.69
2022-07-29T16:29:50.388Z,99723.78
2022-07-29T16:33:55.433Z,99728.09
2022-07-29T16:37:58.100Z,99720.03
2022-07-29T16:42:02.295Z,99716.06
2022-07-29T16:46:09.541Z,99737.38
2022-07-29T16:50:15.855Z,99729.22
2022-07-29T16:54:17.926Z,99723.56
2022-07-29T16:58:19.863Z,99723.25
2022-07-29T17:02:21.758Z,99723.50
2022-07-29T17:06:23.616Z,99720.84
2022-07-29T17:10:27.803Z,99725.81
2022-07-29T17:14:31.183Z,99721.09
2022-07-29T17:18:32.968Z,99724.28
2022-07-29T17:22:35.033Z,99732.06
2022-07-29T17:26:37.017Z,99723.69
2022-07-29T17:30:38.945Z,99732.53
2022-07-29T17:34:48.332Z,99717.03
2022-07-29T17:38:51.745Z,99723.13
2022-07-29T17:42:53.678Z,99721.06
2022-07-29T17:46:55.740Z,99711.84
2022-07-29T17:50:57.976Z,99713.38
2022-07-29T17:54:59.815Z,99719.00
2022-07-29T17:59:06.544Z,99709.53
2022-07-29T18:03:08.526Z,99702.88
2022-07-29T18:07:11.594Z,99705.50
2022-07-29T18:11:15.077Z,99711.13
2022-07-29T18:15:17.007Z,99719.47
2022-07-29T18:19:18.863Z,99714.81
2022-07-29T18:23:21.311Z,99722.00
2022-07-29T18:27:23.768Z,99725.88
2022-07-29T18:31:25.767Z,99731.03
2022-07-29T18:35:27.650Z,99728.28
2022-07-29T18:39:29.516Z,99737.81
2022-07-29T18:43:33.558Z,99735.28
2022-07-29T18:47:36.361Z,99722.69
2022-07-29T18:51:42.278Z,99731.47
2022-07-29T18:55:44.241Z,99735.63
2022-07-29T18:59:48.906Z,99726.25
2022-07-29T19:03:50.748Z,99744.59
2022-07-29T19:07:57.553Z,99751.56
2022-07-29T19:12:03.743Z,99752.44
2022-07-29T19:16:06.393Z,99763.41
2022-07-29T19:20:08.728Z,99765.66
2022-07-29T19:24:15.260Z,99772.66
2022-07-29T19:28:20.019Z,99775.31
2022-07-29T19:32:24.683Z,99776.06
2022-07-29T19:36:27.426Z,99769.59
2022-07-29T19:40:29.595Z,99771.50
2022-07-29T19:44:31.470Z,99776.94
2022-07-29T19:48:35.116Z,99779.16
2022-07-29T19:52:37.084Z,99779.44
2022-07-29T19:56:42.182Z,99788.22
2022-07-29T20:00:47.434Z,99795.19
2022-07-29T20:04:49.246Z,99795.66
2022-07-29T20:08:58.458Z,99798.34
2022-07-29T20:13:00.586Z,99799.06
2022-07-29T20:17:02.708Z,99798.59
2022-07-29T20:21:04.948Z,99803.53
2022-07-29T20:25:09.785Z,99796.47
2022-07-29T20:29:11.547Z,99806.34
2022-07-29T20:33:13.360Z,99805.34
2022-07-29T20:37:16.629Z,99799.50
2022-07-29T20:41:19.206Z,99808.84
2022-07-29T20:45:21.157Z,99805.50
2022-07-29T20:49:22.973Z,99809.22
2022-07-29T20:53:24.830Z,99808.09
2022-07-29T20:57:38.998Z,99821.22
2022-07-29T21:01:41.639Z,99812.97
2022-07-29T21:05:44.105Z,99805.91
2022-07-29T21:09:45.966Z,99813.22
2022-07-29T21:13:47.790Z,99817.41
2022-07-29T21:17:51.896Z,99819.34
2022-07-29T21:21:53.639Z,99818.91
2022-07-29T21:25:55.410Z,99806.59
2022-07-29T21:29:57.178Z,99815.09
2022-07-29T21:34:01.984Z,99814.13
2022-07-29T21:38:03.778Z,99832.38
2022-07-29T21:42:07.952Z,99814.53
2022-07-29T21:46:10.047Z,99808.84
2022-07-29T21:50:11.831Z,99815.81
2022-07-29T21:54:13.686Z,99818.25
2022-07-29T21:58:16.090Z,99808.53
2022-07-29T22:02:17.923Z,99804.00
2022-07-29T22:06:22.012Z,99802.38
2022-07-29T22:10:25.970Z,99811.31
2022-07-29T22:14:27.760Z,99821.50
2022-07-29T22:18:29.537Z,99823.97
2022-07-29T22:22:31.419Z,99819.91
2022-07-29T22:26:33.221Z,99821.19
2022-07-29T22:30:35.016Z,99807.72
2022-07-29T22:34:37.972Z,99817.91
2022-07-29T22:38:39.952Z,99816.97
2022-07-29T22:42:41.676Z,99818.13
2022-07-29T22:46:43.765Z,99815.13
2022-07-29T22:50:45.573Z,99804.69
2022-07-29T22:54:49.881Z,99804.34
2022-07-29T22:58:51.931Z,99806.28
2022-07-29T23:02:53.751Z,99800.75
2022-07-29T23:06:57.254Z,99792.84
2022-07-29T23:10:59.448Z,99786.13
2022-07-29T23:15:01.212Z,99797.69
2022-07-29T23:19:03.318Z,99799.31
2022-07-29T23:23:05.171Z,99804.78
2022-07-29T23:27:06.985Z,99813.94
2022-07-29T23:31:10.414Z,99816.50
2022-07-29T23:35:12.224Z,99821.59
2022-07-29T23:39:14.072Z,99806.63
2022-07-29T23:43:15.860Z,99809.53
2022-07-29T23:47:18.284Z,99822.25
2022-07-29T23:51:20.754Z,99823.25
2022-07-29T23:55:37.958Z,99835.66
2022-07-29T23:59:40.801Z,99838.16
